Time;durP1;ratioP1;P1;durP2;ratioP2;P2;SDS_P1;SDS_P2;PMS_P1;PMS_P2;Temp;Humidity;BMP_temperature;BMP_pressure;BME280_temperature;BME280_humidity;BME280_pressure;Samples;Min_cycle;Max_cycle;Signal;HPM_P1;HPM_P2
2021/10/10 00:00:21;;;;;;;37.22;18.25;;;;;;;;;;5075530;28;20056;-78
2021/10/10 00:02:48;;;;;;;35.67;19.58;;;;;;;;;;5074684;28;20044;-79
2021/10/10 00:05:15;;;;;;;38.95;20.10;;;;;;;;;;5073898;28;20048;-79
2021/10/10 00:07:42;;;;;;;36.30;17.98;;;;;;;;;;5073722;28;20056;-79
2021/10/10 00:10:11;;;;;;;36.30;18.10;;;;;;;;;;5074012;28;20051;-79
2021/10/10 00:12:38;;;;;;;40.42;19.65;;;;;;;;;;5074230;28;20052;-78
2021/10/10 00:15:06;;;;;;;35.47;17.58;;;;;;;;;;5074056;28;20112;-79
2021/10/10 00:17:33;;;;;;;42.28;19.17;;;;;;;;;;5073869;28;20044;-79
2021/10/10 00:20:00;;;;;;;39.80;19.42;;;;;;;;;;5074167;28;20105;-79
2021/10/10 00:22:27;;;;;;;39.13;19.63;;;;;;;;;;5074716;28;20135;-79
2021/10/10 00:24:54;;;;;;;36.90;18.77;;;;;;;;;;5075123;28;20059;-79
2021/10/10 00:27:23;;;;;;;41.88;19.25;;;;;;;;;;5075273;28;20070;-79
2021/10/10 00:29:50;;;;;;;38.63;19.35;;;;;;;;;;5074859;28;20040;-79
2021/10/10 00:32:18;;;;;;;34.88;18.02;;;;;;;;;;5073849;28;20059;-77
2021/10/10 00:34:45;;;;;;;36.10;18.95;;;;;;;;;;5073287;28;20044;-78
2021/10/10 00:37:11;;;;;;;35.58;19.00;;;;;;;;;;5074437;28;20056;-79
2021/10/10 00:39:38;;;;;;;41.85;19.25;;;;;;;;;;5073638;28;20483;-78
2021/10/10 00:42:06;;;;;;;45.70;20.50;;;;;;;;;;5072168;28;20045;-78
2021/10/10 00:44:35;;;;;;;38.78;18.42;;;;;;;;;;5071824;28;20048;-78
2021/10/10 00:47:02;;;;;;;39.78;19.88;;;;;;;;;;5072274;28;20052;-79
2021/10/10 00:49:29;;;;;;;41.63;20.02;;;;;;;;;;5072296;28;20044;-79
2021/10/10 00:51:58;;;;;;;35.50;18.70;;;;;;;;;;5072508;28;20048;-78
2021/10/10 00:54:27;;;;;;;44.53;20.92;;;;;;;;;;5074476;28;20045;-79
2021/10/10 00:56:56;;;;;;;39.47;19.15;;;;;;;;;;5061165;28;20048;-78
2021/10/10 00:59:23;;;;;;;39.63;19.10;;;;;;;;;;5057563;28;20076;-78
2021/10/10 01:01:52;;;;;;;39.75;19.73;;;;;;;;;;5057433;28;20098;-78
2021/10/10 01:04:19;;;;;;;39.38;19.65;;;;;;;;;;5057199;28;20045;-78
2021/10/10 01:06:47;;;;;;;40.00;19.17;;;;;;;;;;5057449;28;20057;-79
2021/10/10 01:09:14;;;;;;;39.42;19.50;;;;;;;;;;5056913;28;20052;-78
2021/10/10 01:11:42;;;;;;;42.50;20.50;;;;;;;;;;5057610;28;20124;-77
2021/10/10 01:14:10;;;;;;;40.45;19.95;;;;;;;;;;5055824;28;20102;-77
2021/10/10 01:16:37;;;;;;;41.50;19.90;;;;;;;;;;5055762;28;20049;-77
2021/10/10 01:19:05;;;;;;;39.55;20.13;;;;;;;;;;5056457;28;20098;-79
2021/10/10 01:21:34;;;;;;;37.65;19.00;;;;;;;;;;5055927;28;20076;-78
2021/10/10 01:24:03;;;;;;;42.53;20.08;;;;;;;;;;5056010;28;20060;-78
2021/10/10 01:26:30;;;;;;;39.97;19.10;;;;;;;;;;5056452;28;20045;-78
2021/10/10 01:28:57;;;;;;;40.83;18.95;;;;;;;;;;5057250;28;20057;-79
2021/10/10 01:31:24;;;;;;;43.80;20.33;;;;;;;;;;5059028;28;20053;-79
2021/10/10 01:33:53;;;;;;;43.67;20.77;;;;;;;;;;5058796;28;20060;-79
2021/10/10 01:36:20;;;;;;;36.90;19.38;;;;;;;;;;5058788;28;20408;-79
2021/10/10 01:38:48;;;;;;;38.78;20.30;;;;;;;;;;5059253;28;20106;-80
2021/10/10 01:41:15;;;;;;;32.55;18.95;;;;;;;;;;5058006;28;20102;-79
2021/10/10 01:43:42;;;;;;;38.95;20.15;;;;;;;;;;5059748;28;20060;-78
2021/10/10 01:46:09;;;;;;;39.58;19.63;;;;;;;;;;5060912;28;20044;-78
2021/10/10 01:48:35;;;;;;;35.85;19.63;;;;;;;;;;5060713;28;20048;-78
2021/10/10 01:51:03;;;;;;;41.38;20.05;;;;;;;;;;5058449;28;20045;-78
2021/10/10 01:53:30;;;;;;;36.40;19.95;;;;;;;;;;5057814;28;20557;-79
2021/10/10 01:55:58;;;;;;;36.10;19.90;;;;;;;;;;5061685;28;20052;-79
2021/10/10 01:58:25;;;;;;;36.50;19.17;;;;;;;;;;5078367;28;20029;-80
2021/10/10 02:00:52;;;;;;;40.13;19.70;;;;;;;;;;5078955;28;20033;-79
2021/10/10 02:03:19;;;;;;;40.92;19.85;;;;;;;;;;5078105;28;20044;-79
2021/10/10 02:05:45;;;;;;;41.70;20.58;;;;;;;;;;5073619;28;20098;-79
2021/10/10 02:08:12;;;;;;;38.05;20.10;;;;;;;;;;5066609;28;20512;-78
2021/10/10 02:10:39;;;;;;;44.53;20.60;;;;;;;;;;5061474;28;20484;-78
2021/10/10 02:13:07;;;;;;;40.72;19.52;;;;;;;;;;5059984;28;20041;-78
2021/10/10 02:15:34;;;;;;;39.50;21.02;;;;;;;;;;5057309;28;20045;-79
2021/10/10 02:18:01;;;;;;;41.85;20.63;;;;;;;;;;5056633;28;20496;-78
2021/10/10 02:20:28;;;;;;;41.40;20.23;;;;;;;;;;5056070;28;20084;-80
2021/10/10 02:22:55;;;;;;;42.22;21.08;;;;;;;;;;5056360;28;20072;-78
2021/10/10 02:25:21;;;;;;;44.75;20.70;;;;;;;;;;5055419;28;20447;-78
2021/10/10 02:27:48;;;;;;;59.88;28.25;;;;;;;;;;5056071;28;20053;-79
2021/10/10 02:30:17;;;;;;;58.63;29.58;;;;;;;;;;5056390;28;20512;-78
2021/10/10 02:32:46;;;;;;;47.25;22.77;;;;;;;;;;5055258;28;20049;-78
2021/10/10 02:35:13;;;;;;;44.67;21.02;;;;;;;;;;5054566;28;20060;-78
2021/10/10 02:37:40;;;;;;;39.38;21.23;;;;;;;;;;5055004;28;20492;-79
2021/10/10 02:40:08;;;;;;;39.85;20.83;;;;;;;;;;5056460;28;20130;-79
2021/10/10 02:42:35;;;;;;;43.00;20.75;;;;;;;;;;5056683;28;20053;-79
2021/10/10 02:45:02;;;;;;;38.20;19.25;;;;;;;;;;5056274;28;20053;-79
2021/10/10 02:47:30;;;;;;;47.20;22.30;;;;;;;;;;5056214;28;20416;-79
2021/10/10 02:49:57;;;;;;;45.13;22.00;;;;;;;;;;5056285;28;20041;-79
2021/10/10 02:52:24;;;;;;;41.25;19.95;;;;;;;;;;5056450;28;20049;-79
2021/10/10 02:54:50;;;;;;;42.00;21.25;;;;;;;;;;5055422;28;20044;-79
2021/10/10 02:57:17;;;;;;;46.05;21.70;;;;;;;;;;5073789;28;20067;-79
2021/10/10 02:59:44;;;;;;;44.08;22.75;;;;;;;;;;5075887;28;20102;-79
2021/10/10 03:02:11;;;;;;;45.42;20.75;;;;;;;;;;5075413;28;20048;-78
2021/10/10 03:04:39;;;;;;;43.85;22.10;;;;;;;;;;5074675;28;20561;-78
2021/10/10 03:07:06;;;;;;;38.33;20.55;;;;;;;;;;5074380;28;20053;-78
2021/10/10 03:09:33;;;;;;;46.80;22.35;;;;;;;;;;5074415;28;20067;-79
2021/10/10 03:12:00;;;;;;;45.85;22.88;;;;;;;;;;5074205;28;20496;-79
2021/10/10 03:14:27;;;;;;;44.17;22.50;;;;;;;;;;5074011;28;20075;-79
2021/10/10 03:16:54;;;;;;;42.53;21.55;;;;;;;;;;5074394;28;20075;-78
2021/10/10 03:19:21;;;;;;;42.90;22.02;;;;;;;;;;5073902;28;20134;-78
2021/10/10 03:21:49;;;;;;;45.13;22.38;;;;;;;;;;5073950;28;20056;-78
2021/10/10 03:24:16;;;;;;;45.70;22.17;;;;;;;;;;5073804;28;20059;-78
2021/10/10 03:26:43;;;;;;;42.05;21.13;;;;;;;;;;5075274;28;20499;-78
2021/10/10 03:29:10;;;;;;;43.60;23.35;;;;;;;;;;5074750;28;20052;-78
2021/10/10 03:31:36;;;;;;;42.83;21.30;;;;;;;;;;5075013;28;20048;-78
2021/10/10 03:34:03;;;;;;;44.38;21.80;;;;;;;;;;5073733;28;20071;-78
2021/10/10 03:36:30;;;;;;;42.58;22.88;;;;;;;;;;5073536;28;20052;-79
2021/10/10 03:38:58;;;;;;;43.38;22.33;;;;;;;;;;5073841;28;20041;-78
2021/10/10 03:41:25;;;;;;;40.15;21.70;;;;;;;;;;5073630;28;20052;-78
2021/10/10 03:43:52;;;;;;;46.58;23.20;;;;;;;;;;5073459;28;20114;-78
2021/10/10 03:46:19;;;;;;;44.33;21.85;;;;;;;;;;5073573;28;20056;-78
2021/10/10 03:48:46;;;;;;;45.55;23.35;;;;;;;;;;5073312;28;20048;-78
2021/10/10 03:51:12;;;;;;;46.30;24.13;;;;;;;;;;5073167;28;20411;-78
2021/10/10 03:54:06;;;;;;;50.35;24.55;;;;;;;;;;5073786;28;20052;-78
2021/10/10 03:56:31;;;;;;;40.95;21.80;;;;;;;;;;5062162;28;20049;-78
2021/10/10 03:58:58;;;;;;;45.80;24.08;;;;;;;;;;5053374;28;20131;-77
2021/10/10 04:01:26;;;;;;;43.42;23.10;;;;;;;;;;5053782;28;20504;-78
2021/10/10 04:03:53;;;;;;;40.35;22.33;;;;;;;;;;5053847;28;20045;-78
2021/10/10 04:06:20;;;;;;;45.25;21.98;;;;;;;;;;5052779;28;20098;-78
2021/10/10 04:08:47;;;;;;;45.72;23.33;;;;;;;;;;5053626;28;20427;-78
2021/10/10 04:11:14;;;;;;;46.95;22.45;;;;;;;;;;5053182;28;20083;-78
2021/10/10 04:13:42;;;;;;;47.13;22.45;;;;;;;;;;5053328;28;20060;-78
2021/10/10 04:16:09;;;;;;;46.45;22.40;;;;;;;;;;5053744;28;20096;-78
2021/10/10 04:18:36;;;;;;;45.97;22.92;;;;;;;;;;5054369;28;20052;-78
2021/10/10 04:21:04;;;;;;;47.95;23.73;;;;;;;;;;5053939;28;20061;-77
2021/10/10 04:23:31;;;;;;;43.00;22.27;;;;;;;;;;5053411;28;20103;-78
2021/10/10 04:25:58;;;;;;;46.67;24.33;;;;;;;;;;5053193;28;20049;-78
2021/10/10 04:28:25;;;;;;;47.45;23.63;;;;;;;;;;5053483;28;20195;-78
2021/10/10 04:30:53;;;;;;;57.63;23.95;;;;;;;;;;5059253;28;20510;-77
2021/10/10 04:33:20;;;;;;;48.83;23.90;;;;;;;;;;5068571;28;20079;-77
2021/10/10 04:35:48;;;;;;;46.70;23.33;;;;;;;;;;5063429;28;20083;-78
2021/10/10 04:38:15;;;;;;;44.28;21.60;;;;;;;;;;5058610;28;20083;-79
2021/10/10 04:40:42;;;;;;;43.63;22.48;;;;;;;;;;5057995;28;20110;-78
2021/10/10 04:43:10;;;;;;;44.97;22.75;;;;;;;;;;5056034;28;20393;-78
2021/10/10 04:45:37;;;;;;;45.92;21.25;;;;;;;;;;5056893;28;20045;-78
2021/10/10 04:48:06;;;;;;;47.90;23.27;;;;;;;;;;5056531;28;20458;-78
2021/10/10 04:50:33;;;;;;;47.72;24.02;;;;;;;;;;5055529;28;20045;-78
2021/10/10 04:53:00;;;;;;;46.97;22.27;;;;;;;;;;5061415;28;20052;-78
2021/10/10 04:55:27;;;;;;;49.65;24.20;;;;;;;;;;5063339;28;20052;-78
2021/10/10 04:57:54;;;;;;;52.30;23.70;;;;;;;;;;5058954;28;20041;-78
2021/10/10 05:00:20;;;;;;;51.55;23.65;;;;;;;;;;5058000;28;20098;-78
2021/10/10 05:02:47;;;;;;;42.80;21.58;;;;;;;;;;5057677;28;20045;-78
2021/10/10 05:05:15;;;;;;;48.45;22.75;;;;;;;;;;5069902;28;20067;-79
2021/10/10 05:07:42;;;;;;;43.90;23.85;;;;;;;;;;5079597;28;20073;-78
2021/10/10 05:10:10;;;;;;;45.03;23.05;;;;;;;;;;5078623;28;20037;-78
2021/10/10 05:12:37;;;;;;;46.72;23.52;;;;;;;;;;5074836;28;20056;-79
2021/10/10 05:15:04;;;;;;;44.55;23.27;;;;;;;;;;5059824;28;20103;-78
2021/10/10 05:17:31;;;;;;;45.45;23.13;;;;;;;;;;5058629;28;20049;-78
2021/10/10 05:19:58;;;;;;;46.42;23.05;;;;;;;;;;5057816;28;20048;-78
2021/10/10 05:22:26;;;;;;;44.42;23.40;;;;;;;;;;5057354;28;20041;-78
2021/10/10 05:24:55;;;;;;;46.08;23.13;;;;;;;;;;5057165;28;20451;-79
2021/10/10 05:27:21;;;;;;;46.22;24.08;;;;;;;;;;5057141;28;20049;-79
2021/10/10 05:29:48;;;;;;;44.25;22.58;;;;;;;;;;5056717;28;20056;-79
2021/10/10 05:32:15;;;;;;;51.47;23.70;;;;;;;;;;5056405;28;20099;-80
2021/10/10 05:34:42;;;;;;;45.42;23.13;;;;;;;;;;5057766;28;20045;-79
2021/10/10 05:37:09;;;;;;;45.85;22.83;;;;;;;;;;5058163;28;20075;-79
2021/10/10 05:39:37;;;;;;;47.03;22.80;;;;;;;;;;5057885;28;20197;-79
2021/10/10 05:42:04;;;;;;;43.95;23.63;;;;;;;;;;5056152;28;20178;-79
2021/10/10 05:44:31;;;;;;;46.63;24.63;;;;;;;;;;5056186;28;20055;-78
2021/10/10 05:46:57;;;;;;;43.08;21.48;;;;;;;;;;5056769;28;20060;-79
2021/10/10 05:49:24;;;;;;;45.30;22.48;;;;;;;;;;5057403;28;20053;-78
2021/10/10 05:51:51;;;;;;;47.67;23.17;;;;;;;;;;5057506;28;20045;-79
2021/10/10 05:54:18;;;;;;;48.58;24.05;;;;;;;;;;5056936;28;20041;-79
2021/10/10 05:56:46;;;;;;;52.80;24.73;;;;;;;;;;5056690;28;20062;-79
2021/10/10 05:59:15;;;;;;;48.70;23.20;;;;;;;;;;5055476;28;20492;-78
2021/10/10 06:01:42;;;;;;;51.95;24.73;;;;;;;;;;5055801;28;20496;-78
2021/10/10 06:04:09;;;;;;;46.85;22.20;;;;;;;;;;5054814;28;20080;-78
2021/10/10 06:06:37;;;;;;;46.50;23.85;;;;;;;;;;5056083;28;20060;-78
2021/10/10 06:09:05;;;;;;;40.70;21.60;;;;;;;;;;5055579;28;20049;-79
2021/10/10 06:11:32;;;;;;;48.85;23.23;;;;;;;;;;5055157;28;20048;-79
2021/10/10 06:14:01;;;;;;;45.15;22.33;;;;;;;;;;5055036;28;20454;-77
2021/10/10 06:16:28;;;;;;;45.75;23.17;;;;;;;;;;5055546;28;20049;-79
2021/10/10 06:18:55;;;;;;;48.03;22.27;;;;;;;;;;5055093;28;20045;-78
2021/10/10 06:21:22;;;;;;;46.20;22.67;;;;;;;;;;5055463;28;20048;-79
2021/10/10 06:23:49;;;;;;;45.47;22.92;;;;;;;;;;5055545;28;20048;-79
2021/10/10 06:26:15;;;;;;;39.63;21.40;;;;;;;;;;5056444;28;20049;-79
2021/10/10 06:28:42;;;;;;;45.85;21.73;;;;;;;;;;5056365;28;20090;-79
2021/10/10 06:31:11;;;;;;;49.22;23.67;;;;;;;;;;5056156;28;20068;-79
2021/10/10 06:33:37;;;;;;;49.08;22.92;;;;;;;;;;5056071;28;20389;-78
2021/10/10 06:36:04;;;;;;;45.85;21.80;;;;;;;;;;5056190;28;20057;-79
2021/10/10 06:38:31;;;;;;;50.03;22.10;;;;;;;;;;5096365;22;20074;-78
2021/10/10 06:40:58;;;;;;;45.78;22.33;;;;;;;;;;5105030;28;20048;-78
2021/10/10 06:43:25;;;;;;;47.45;22.85;;;;;;;;;;5103383;28;20055;-81
2021/10/10 06:45:52;;;;;;;44.70;21.90;;;;;;;;;;5103059;28;20048;-79
2021/10/10 06:48:24;;;;;;;47.92;22.88;;;;;;;;;;5091328;28;20052;-81
2021/10/10 06:50:51;;;;;;;42.40;21.95;;;;;;;;;;5085126;28;20070;-79
2021/10/10 06:53:18;;;;;;;46.33;21.52;;;;;;;;;;5084964;28;20055;-83
2021/10/10 06:55:45;;;;;;;47.53;22.95;;;;;;;;;;5088102;28;20041;-79
2021/10/10 06:58:12;;;;;;;35.55;19.33;;;;;;;;;;5081120;28;20044;-81
2021/10/10 07:00:39;;;;;;;42.88;21.73;;;;;;;;;;5080582;28;20040;-81
2021/10/10 07:03:06;;;;;;;44.50;22.77;;;;;;;;;;5080268;28;20460;-81
2021/10/10 07:05:35;;;;;;;47.13;22.77;;;;;;;;;;5079336;28;20044;-79
2021/10/10 07:08:01;;;;;;;40.97;22.40;;;;;;;;;;5079409;28;20420;-79
2021/10/10 07:10:28;;;;;;;41.15;20.50;;;;;;;;;;5079428;28;20048;-81
2021/10/10 07:12:55;;;;;;;46.78;22.50;;;;;;;;;;5078458;28;20099;-80
2021/10/10 07:15:22;;;;;;;42.67;22.65;;;;;;;;;;5078694;28;20593;-80
2021/10/10 07:17:58;;;;;;;56.95;22.95;;;;;;;;;;5079263;28;20044;-80
2021/10/10 07:20:28;;;;;;;43.58;21.35;;;;;;;;;;5079423;28;20048;-80
2021/10/10 07:23:09;;;;;;;43.85;22.80;;;;;;;;;;5078601;28;20048;-79
2021/10/10 07:25:36;;;;;;;46.05;22.13;;;;;;;;;;5076917;28;20049;-80
2021/10/10 07:28:03;;;;;;;40.28;20.67;;;;;;;;;;5071719;28;20094;-82
2021/10/10 07:30:30;;;;;;;45.60;22.38;;;;;;;;;;5065994;28;20052;-80
2021/10/10 07:32:57;;;;;;;46.25;22.45;;;;;;;;;;5064857;28;20135;-80
2021/10/10 07:35:24;;;;;;;39.92;20.90;;;;;;;;;;5066111;28;20048;-81
2021/10/10 07:37:51;;;;;;;47.40;22.35;;;;;;;;;;5060364;28;20041;-81
2021/10/10 07:40:20;;;;;;;38.95;21.85;;;;;;;;;;5055958;28;20049;-80
2021/10/10 07:42:47;;;;;;;44.63;21.52;;;;;;;;;;5056507;28;20073;-79
2021/10/10 07:45:18;;;;;;;47.08;23.52;;;;;;;;;;5055555;28;20045;-80
2021/10/10 07:47:49;;;;;;;39.45;21.75;;;;;;;;;;5061649;28;20143;-79
2021/10/10 07:50:16;;;;;;;43.45;21.92;;;;;;;;;;5066030;28;20055;-81
2021/10/10 07:52:44;;;;;;;46.28;20.13;;;;;;;;;;5059605;28;20044;-80
2021/10/10 07:55:11;;;;;;;41.90;21.02;;;;;;;;;;5057021;28;20083;-80
2021/10/10 07:57:40;;;;;;;43.65;21.42;;;;;;;;;;5079191;28;20044;-81
2021/10/10 08:00:10;;;;;;;46.58;22.65;;;;;;;;;;5077101;28;20044;-80
2021/10/10 08:02:49;;;;;;;44.80;21.35;;;;;;;;;;5076539;28;20048;-81
2021/10/10 08:05:16;;;;;;;40.10;19.92;;;;;;;;;;5077179;28;20067;-80
2021/10/10 08:07:43;;;;;;;45.35;20.90;;;;;;;;;;5082271;28;20079;-81
2021/10/10 08:10:10;;;;;;;39.28;20.30;;;;;;;;;;5081589;28;20052;-80
2021/10/10 08:12:37;;;;;;;41.45;20.20;;;;;;;;;;5080798;28;20055;-81
2021/10/10 08:15:07;;;;;;;46.35;21.02;;;;;;;;;;5080596;28;20070;-80
2021/10/10 08:17:34;;;;;;;43.45;22.38;;;;;;;;;;5081347;28;20441;-80
2021/10/10 08:20:00;;;;;;;41.65;21.70;;;;;;;;;;5080775;28;20261;-81
2021/10/10 08:22:27;;;;;;;49.85;25.52;;;;;;;;;;5080816;28;20510;-81
2021/10/10 08:24:55;;;;;;;52.63;25.13;;;;;;;;;;5080115;28;20048;-80
2021/10/10 08:27:22;;;;;;;45.30;21.35;;;;;;;;;;5080565;28;20071;-81
2021/10/10 08:29:49;;;;;;;48.50;22.02;;;;;;;;;;5080786;28;20446;-81
2021/10/10 08:32:17;;;;;;;46.70;22.70;;;;;;;;;;5080092;28;20044;-83
2021/10/10 08:34:44;;;;;;;41.83;21.60;;;;;;;;;;5080620;28;20040;-81
2021/10/10 08:37:10;;;;;;;41.25;22.17;;;;;;;;;;5077031;28;20048;-80
2021/10/10 08:39:37;;;;;;;40.38;21.27;;;;;;;;;;5078414;28;20079;-82
2021/10/10 08:42:06;;;;;;;46.92;20.80;;;;;;;;;;5080207;28;20074;-82
2021/10/10 08:44:37;;;;;;;45.58;22.58;;;;;;;;;;5078872;28;20077;-82
2021/10/10 08:47:14;;;;;;;44.60;22.40;;;;;;;;;;5079900;28;20053;-82
2021/10/10 08:49:42;;;;;;;42.67;22.52;;;;;;;;;;5080251;28;20060;-82
2021/10/10 08:52:11;;;;;;;41.72;21.85;;;;;;;;;;5079061;28;20640;-81
2021/10/10 08:54:38;;;;;;;39.03;20.73;;;;;;;;;;5078760;28;20049;-79
2021/10/10 08:57:08;;;;;;;41.17;20.13;;;;;;;;;;5062755;28;20046;-81
2021/10/10 08:59:36;;;;;;;51.38;23.63;;;;;;;;;;5059760;28;20079;-82
2021/10/10 09:02:04;;;;;;;46.53;22.50;;;;;;;;;;5059874;28;20048;-82
2021/10/10 09:04:39;;;;;;;43.85;21.60;;;;;;;;;;5059190;28;20049;-81
2021/10/10 09:07:08;;;;;;;43.92;23.45;;;;;;;;;;5061935;28;20088;-80
2021/10/10 09:09:36;;;;;;;39.95;20.95;;;;;;;;;;5059543;28;20045;-81
2021/10/10 09:12:06;;;;;;;45.60;22.08;;;;;;;;;;5059244;28;20178;-81
2021/10/10 09:14:44;;;;;;;43.60;22.95;;;;;;;;;;5059591;28;20049;-81
2021/10/10 09:17:12;;;;;;;38.53;21.55;;;;;;;;;;5060002;28;20053;-81
2021/10/10 09:19:40;;;;;;;45.70;22.38;;;;;;;;;;5060470;28;20052;-80
2021/10/10 09:22:11;;;;;;;44.90;22.63;;;;;;;;;;5061150;28;20521;-83
2021/10/10 09:24:38;;;;;;;49.38;23.50;;;;;;;;;;5060763;28;20049;-81
2021/10/10 09:27:06;;;;;;;41.78;22.08;;;;;;;;;;5060595;28;20053;-81
2021/10/10 09:29:35;;;;;;;53.05;25.08;;;;;;;;;;5060799;28;20083;-80
2021/10/10 09:32:13;;;;;;;42.28;23.08;;;;;;;;;;5061307;28;20052;-81
2021/10/10 09:34:42;;;;;;;49.05;24.25;;;;;;;;;;5057672;28;20092;-79
2021/10/10 09:37:17;;;;;;;46.40;22.83;;;;;;;;;;5058208;28;20152;-80
2021/10/10 09:39:46;;;;;;;49.05;23.25;;;;;;;;;;5059241;28;20108;-80
2021/10/10 09:42:32;;;;;;;44.72;22.77;;;;;;;;;;5057821;28;20055;-79
2021/10/10 09:45:13;;;;;;;43.85;21.55;;;;;;;;;;5064392;28;20112;-78
2021/10/10 09:47:52;;;;;;;63.03;30.33;;;;;;;;;;5066922;28;20041;-78
2021/10/10 09:50:19;;;;;;;44.78;22.58;;;;;;;;;;5057547;28;20045;-79
2021/10/10 09:52:59;;;;;;;46.95;21.50;;;;;;;;;;5057512;28;20434;-78
2021/10/10 09:55:26;;;;;;;43.50;22.60;;;;;;;;;;5060134;28;20136;-79
2021/10/10 09:57:53;;;;;;;41.67;21.95;;;;;;;;;;5077374;28;20049;-78
2021/10/10 10:00:22;;;;;;;41.58;23.40;;;;;;;;;;5076676;28;20508;-78
2021/10/10 10:02:50;;;;;;;48.38;26.13;;;;;;;;;;5077319;28;20052;-78
2021/10/10 10:05:25;;;;;;;53.90;26.48;;;;;;;;;;5077680;28;20135;-79
2021/10/10 10:07:54;;;;;;;43.05;22.30;;;;;;;;;;5078395;28;20053;-79
2021/10/10 10:10:22;;;;;;;47.38;23.67;;;;;;;;;;5077542;28;20457;-80
2021/10/10 10:12:49;;;;;;;48.25;25.17;;;;;;;;;;5079011;28;20063;-80
2021/10/10 10:15:18;;;;;;;44.85;22.25;;;;;;;;;;5078296;28;20065;-79
2021/10/10 10:17:46;;;;;;;44.33;24.23;;;;;;;;;;5078124;28;20048;-80
2021/10/10 10:20:15;;;;;;;43.90;22.77;;;;;;;;;;5078947;28;20041;-80
2021/10/10 10:22:43;;;;;;;41.22;22.08;;;;;;;;;;5078064;28;20527;-82
2021/10/10 10:25:11;;;;;;;41.85;21.17;;;;;;;;;;5077369;28;20079;-78
2021/10/10 10:27:38;;;;;;;42.63;19.52;;;;;;;;;;5077399;28;20045;-83
2021/10/10 10:30:07;;;;;;;43.63;21.27;;;;;;;;;;5077235;28;20487;-81
2021/10/10 10:32:35;;;;;;;44.70;24.02;;;;;;;;;;5080586;28;20048;-85
2021/10/10 10:35:04;;;;;;;40.80;23.35;;;;;;;;;;5080460;28;20135;-80
2021/10/10 10:37:52;;;;;;;40.95;22.10;;;;;;;;;;5089832;28;20050;-80
2021/10/10 10:40:35;;;;;;;47.58;23.00;;;;;;;;;;5090102;28;20056;-84
2021/10/10 10:43:04;;;;;;;46.53;23.63;;;;;;;;;;5090496;28;20049;-81
2021/10/10 10:45:34;;;;;;;48.47;25.13;;;;;;;;;;5088336;28;20056;-85
2021/10/10 10:48:02;;;;;;;49.72;25.10;;;;;;;;;;5092159;28;20071;-85
2021/10/10 10:50:32;;;;;;;47.20;25.13;;;;;;;;;;5089554;28;20056;-83
2021/10/10 10:53:00;;;;;;;46.95;22.75;;;;;;;;;;5088628;28;20049;-85
2021/10/10 10:55:31;;;;;;;50.50;27.27;;;;;;;;;;5079986;28;20045;-82
2021/10/10 10:58:00;;;;;;;41.08;22.60;;;;;;;;;;5085249;28;20044;-83
2021/10/10 11:00:30;;;;;;;58.67;32.00;;;;;;;;;;5089257;28;20071;-81
2021/10/10 11:03:14;;;;;;;51.65;27.95;;;;;;;;;;5090843;28;20045;-82
2021/10/10 11:06:00;;;;;;;48.05;25.48;;;;;;;;;;5090801;28;20051;-87
2021/10/10 11:08:39;;;;;;;37.90;23.00;;;;;;;;;;5087820;28;20486;-80
2021/10/10 11:11:15;;;;;;;42.95;23.05;;;;;;;;;;5088289;28;20439;-78
2021/10/10 11:13:43;;;;;;;39.90;22.38;;;;;;;;;;5089646;28;20106;-80
2021/10/10 11:16:12;;;;;;;43.05;23.38;;;;;;;;;;5087612;28;20052;-78
2021/10/10 11:18:44;;;;;;;45.53;23.17;;;;;;;;;;5086239;28;20090;-78
2021/10/10 11:21:13;;;;;;;44.33;23.20;;;;;;;;;;5085878;28;20052;-78
2021/10/10 11:23:41;;;;;;;39.80;21.55;;;;;;;;;;5084998;28;20130;-79
2021/10/10 11:26:10;;;;;;;42.13;22.55;;;;;;;;;;5081344;28;20048;-78
2021/10/10 11:28:41;;;;;;;36.67;20.73;;;;;;;;;;5084481;28;20044;-78
2021/10/10 11:31:13;;;;;;;40.47;21.65;;;;;;;;;;5084400;28;20055;-79
2021/10/10 11:33:42;;;;;;;43.60;21.92;;;;;;;;;;5079026;28;20045;-80
2021/10/10 11:36:10;;;;;;;38.20;20.80;;;;;;;;;;5079512;28;20044;-81
2021/10/10 11:38:52;;;;;;;42.22;23.30;;;;;;;;;;5078937;28;20052;-78
2021/10/10 11:41:19;;;;;;;40.83;22.15;;;;;;;;;;5079088;28;20049;-79
2021/10/10 11:44:05;;;;;;;41.25;20.45;;;;;;;;;;5079117;28;20048;-80
2021/10/10 11:46:47;;;;;;;41.55;21.40;;;;;;;;;;5079945;28;20052;-78
2021/10/10 11:49:25;;;;;;;39.75;21.45;;;;;;;;;;5079920;28;20049;-78
2021/10/10 11:51:53;;;;;;;41.97;20.20;;;;;;;;;;5079895;28;20052;-78
2021/10/10 11:54:32;;;;;;;35.28;19.42;;;;;;;;;;5077204;28;20050;-79
2021/10/10 11:57:00;;;;;;;33.10;19.50;;;;;;;;;;5077022;28;20048;-80
2021/10/10 11:59:28;;;;;;;41.35;21.80;;;;;;;;;;5066519;28;20047;-79
2021/10/10 12:01:56;;;;;;;35.80;19.02;;;;;;;;;;5062405;28;20040;-80
2021/10/10 12:04:25;;;;;;;37.88;20.10;;;;;;;;;;5058193;28;20059;-80
2021/10/10 12:06:52;;;;;;;52.85;29.33;;;;;;;;;;5058684;28;20052;-79
2021/10/10 12:09:19;;;;;;;43.40;21.27;;;;;;;;;;5074143;28;20067;-80
2021/10/10 12:12:05;;;;;;;34.30;20.60;;;;;;;;;;5074717;28;20049;-80
2021/10/10 12:14:44;;;;;;;37.92;19.98;;;;;;;;;;5075407;28;20044;-79
2021/10/10 12:17:26;;;;;;;34.92;20.10;;;;;;;;;;5074995;28;20080;-78
2021/10/10 12:19:53;;;;;;;38.17;19.98;;;;;;;;;;5075682;28;20392;-79
2021/10/10 12:22:20;;;;;;;34.92;19.70;;;;;;;;;;5075886;28;20059;-80
2021/10/10 12:24:48;;;;;;;35.42;17.95;;;;;;;;;;5075576;28;20403;-79
2021/10/10 12:27:25;;;;;;;62.85;32.90;;;;;;;;;;5074227;28;20048;-79
2021/10/10 12:29:54;;;;;;;47.10;24.33;;;;;;;;;;5074373;28;20431;-79
2021/10/10 12:32:22;;;;;;;40.38;21.58;;;;;;;;;;5072755;28;20473;-79
2021/10/10 12:34:49;;;;;;;33.80;18.33;;;;;;;;;;5073030;28;20048;-79
2021/10/10 12:37:18;;;;;;;40.63;20.95;;;;;;;;;;5073872;28;20044;-79
2021/10/10 12:39:45;;;;;;;34.67;17.80;;;;;;;;;;5073571;28;20084;-77
2021/10/10 12:42:13;;;;;;;33.35;18.17;;;;;;;;;;5071833;28;20048;-79
2021/10/10 12:44:40;;;;;;;29.88;17.10;;;;;;;;;;5072014;28;20059;-79
2021/10/10 12:47:08;;;;;;;29.85;16.70;;;;;;;;;;5070898;28;20040;-77
2021/10/10 12:49:36;;;;;;;34.58;18.00;;;;;;;;;;5071388;28;20056;-78
2021/10/10 12:52:05;;;;;;;53.05;30.50;;;;;;;;;;5072112;28;20135;-77
2021/10/10 12:54:32;;;;;;;40.55;21.00;;;;;;;;;;5074796;28;20161;-78
2021/10/10 12:57:07;;;;;;;41.08;21.73;;;;;;;;;;5075911;28;20049;-78
2021/10/10 12:59:36;;;;;;;34.55;18.23;;;;;;;;;;5075823;28;20098;-79
2021/10/10 13:02:06;;;;;;;28.52;15.88;;;;;;;;;;5074739;28;20628;-78
2021/10/10 13:04:36;;;;;;;27.05;15.68;;;;;;;;;;5076382;28;20055;-78
2021/10/10 13:07:04;;;;;;;29.25;16.52;;;;;;;;;;5075673;28;20048;-78
2021/10/10 13:09:31;;;;;;;31.60;18.77;;;;;;;;;;5076432;28;20334;-79
2021/10/10 13:12:01;;;;;;;33.00;15.73;;;;;;;;;;5075397;28;20051;-77
2021/10/10 13:14:28;;;;;;;29.83;15.13;;;;;;;;;;5075916;28;20072;-77
2021/10/10 13:16:55;;;;;;;31.48;15.88;;;;;;;;;;5077558;28;20178;-78
2021/10/10 13:19:23;;;;;;;25.75;14.55;;;;;;;;;;5075748;28;20048;-77
2021/10/10 13:21:53;;;;;;;29.67;15.27;;;;;;;;;;5075052;28;20056;-76
2021/10/10 13:24:21;;;;;;;26.00;14.77;;;;;;;;;;5074284;28;20056;-78
2021/10/10 13:26:49;;;;;;;33.08;17.75;;;;;;;;;;5074270;28;20045;-79
2021/10/10 13:29:18;;;;;;;27.85;16.73;;;;;;;;;;5073236;28;20047;-78
2021/10/10 13:31:45;;;;;;;33.22;18.67;;;;;;;;;;5073183;28;20482;-78
2021/10/10 13:34:12;;;;;;;27.23;15.18;;;;;;;;;;5072907;28;20135;-79
2021/10/10 13:36:39;;;;;;;20.90;13.05;;;;;;;;;;5074626;28;20052;-78
2021/10/10 13:39:08;;;;;;;28.60;14.10;;;;;;;;;;5074746;28;20049;-77
2021/10/10 13:41:37;;;;;;;23.77;13.85;;;;;;;;;;5074797;28;20346;-78
2021/10/10 13:44:07;;;;;;;25.45;12.75;;;;;;;;;;5074058;28;20083;-77
2021/10/10 13:46:35;;;;;;;21.20;12.13;;;;;;;;;;5074652;28;20053;-79
2021/10/10 13:49:02;;;;;;;24.42;14.13;;;;;;;;;;5073344;28;20048;-79
2021/10/10 13:51:29;;;;;;;36.28;20.75;;;;;;;;;;5072870;28;20041;-78
2021/10/10 13:53:56;;;;;;;25.40;15.05;;;;;;;;;;5074653;28;20044;-79
2021/10/10 13:56:24;;;;;;;24.30;13.57;;;;;;;;;;5074550;28;20075;-77
2021/10/10 13:58:51;;;;;;;28.63;14.43;;;;;;;;;;5074105;28;20550;-79
2021/10/10 14:01:18;;;;;;;26.00;13.20;;;;;;;;;;5075444;28;20040;-79
2021/10/10 14:03:45;;;;;;;26.05;14.25;;;;;;;;;;5074726;28;20142;-79
2021/10/10 14:06:12;;;;;;;28.08;13.68;;;;;;;;;;5074800;28;20514;-78
2021/10/10 14:08:39;;;;;;;33.13;14.05;;;;;;;;;;5074847;28;20051;-80
2021/10/10 14:11:06;;;;;;;29.05;14.95;;;;;;;;;;5073367;28;20040;-78
2021/10/10 14:13:34;;;;;;;23.73;14.48;;;;;;;;;;5074705;28;20753;-77
2021/10/10 14:16:01;;;;;;;23.42;13.35;;;;;;;;;;5075657;28;20044;-78
2021/10/10 14:18:27;;;;;;;27.65;13.85;;;;;;;;;;5076304;28;20053;-78
2021/10/10 14:20:54;;;;;;;28.23;13.60;;;;;;;;;;5076060;28;20495;-78
2021/10/10 14:23:21;;;;;;;24.05;12.23;;;;;;;;;;5080537;28;20126;-77